createdAt,value
2022-12-08T00:00:25.780Z,642.0000
2022-12-08T00:01:28.136Z,645.0000
2022-12-08T00:02:30.651Z,649.0000
2022-12-08T00:03:33.081Z,653.0000
2022-12-08T00:04:33.002Z,650.0000
2022-12-08T00:05:35.357Z,648.0000
2022-12-08T00:06:37.679Z,642.0000
2022-12-08T00:07:40.256Z,645.0000
2022-12-08T00:08:42.304Z,643.0000
2022-12-08T00:09:44.652Z,639.0000
2022-12-08T00:10:49.795Z,642.0000
2022-12-08T00:11:47.175Z,644.0000
2022-12-08T00:12:49.499Z,635.0000
2022-12-08T00:13:49.658Z,641.0000
2022-12-08T00:14:51.968Z,642.0000
2022-12-08T00:15:54.247Z,641.0000
2022-12-08T00:16:54.559Z,641.0000
2022-12-08T00:17:56.734Z,647.0000
2022-12-08T00:18:59.005Z,649.0000
2022-12-08T00:20:01.359Z,648.0000
2022-12-08T00:21:03.733Z,647.0000
2022-12-08T00:22:06.065Z,650.0000
2022-12-08T00:23:06.317Z,647.0000
2022-12-08T00:24:08.657Z,647.0000
2022-12-08T00:25:10.984Z,648.0000
2022-12-08T00:26:13.345Z,646.0000
2022-12-08T00:27:13.555Z,641.0000
2022-12-08T00:28:16.063Z,646.0000
2022-12-08T00:29:18.271Z,647.0000
2022-12-08T00:30:20.616Z,642.0000
2022-12-08T00:31:20.860Z,645.0000
2022-12-08T00:32:23.195Z,643.0000
2022-12-08T00:33:25.475Z,644.0000
2022-12-08T00:34:27.753Z,639.0000
2022-12-08T00:35:30.092Z,644.0000
2022-12-08T00:36:32.490Z,644.0000
2022-12-08T00:37:32.696Z,642.0000
2022-12-08T00:38:35.200Z,643.0000
2022-12-08T00:39:37.445Z,647.0000
2022-12-08T00:40:39.777Z,646.0000
2022-12-08T00:41:42.074Z,643.0000
2022-12-08T00:42:42.295Z,646.0000
2022-12-08T00:43:44.838Z,650.0000
2022-12-08T00:44:47.023Z,649.0000
2022-12-08T00:45:49.434Z,648.0000
2022-12-08T00:46:51.771Z,646.0000
2022-12-08T00:47:51.989Z,643.0000
2022-12-08T00:48:54.509Z,644.0000
2022-12-08T00:49:56.738Z,647.0000
2022-12-08T00:50:59.119Z,644.0000
2022-12-08T00:51:59.328Z,644.0000
2022-12-08T00:53:01.671Z,647.0000
2022-12-08T00:54:04.054Z,646.0000
2022-12-08T00:55:06.391Z,645.0000
2022-12-08T00:56:08.734Z,648.0000
2022-12-08T00:57:08.961Z,647.0000
2022-12-08T00:58:11.318Z,647.0000
2022-12-08T00:59:13.953Z,645.0000
2022-12-08T01:00:16.030Z,645.0000
2022-12-08T01:01:16.285Z,648.0000
2022-12-08T01:02:18.530Z,635.0000
2022-12-08T01:03:20.992Z,641.0000
2022-12-08T01:04:23.408Z,643.0000
2022-12-08T01:05:25.551Z,638.0000
2022-12-08T01:06:25.702Z,637.0000
2022-12-08T01:07:27.991Z,642.0000
2022-12-08T01:08:30.250Z,641.0000
2022-12-08T01:09:32.592Z,638.0000
2022-12-08T01:10:34.860Z,638.0000
2022-12-08T01:11:37.108Z,642.0000
2022-12-08T01:12:39.336Z,641.0000
2022-12-08T01:13:41.625Z,639.0000
2022-12-08T01:14:41.812Z,642.0000
2022-12-08T01:15:44.088Z,642.0000
2022-12-08T01:16:46.453Z,641.0000
2022-12-08T01:17:48.670Z,641.0000
2022-12-08T01:18:50.949Z,641.0000
2022-12-08T01:19:53.241Z,638.0000
2022-12-08T01:20:55.464Z,642.0000
2022-12-08T01:21:55.625Z,645.0000
2022-12-08T01:22:57.950Z,645.0000
2022-12-08T01:24:00.224Z,641.0000
2022-12-08T01:25:02.585Z,640.0000
2022-12-08T01:26:04.893Z,641.0000
2022-12-08T01:27:07.243Z,636.0000
2022-12-08T01:28:07.431Z,640.0000
2022-12-08T01:29:09.773Z,640.0000
2022-12-08T01:30:12.104Z,639.0000
2022-12-08T01:31:14.412Z,637.0000
2022-12-08T01:32:16.702Z,640.0000
2022-12-08T01:33:19.079Z,638.0000
2022-12-08T01:34:19.291Z,639.0000
2022-12-08T01:35:21.732Z,640.0000
2022-12-08T01:36:24.034Z,639.0000
2022-12-08T01:37:24.243Z,637.0000
2022-12-08T01:38:26.630Z,636.0000
2022-12-08T01:39:28.995Z,639.0000
2022-12-08T01:40:31.490Z,642.0000
2022-12-08T01:41:33.746Z,639.0000
2022-12-08T01:42:33.938Z,640.0000
2022-12-08T01:43:36.266Z,639.0000
2022-12-08T01:44:38.579Z,638.0000
2022-12-08T01:45:43.029Z,637.0000
2022-12-08T01:46:43.331Z,635.0000
2022-12-08T01:47:45.651Z,640.0000
2022-12-08T01:48:45.685Z,636.0000
2022-12-08T01:49:48.007Z,636.0000
2022-12-08T01:50:50.338Z,634.0000
2022-12-08T01:51:52.643Z,631.0000
2022-12-08T01:52:54.940Z,638.0000
2022-12-08T01:53:57.273Z,635.0000
2022-12-08T01:54:57.405Z,636.0000
2022-12-08T01:55:59.715Z,637.0000
2022-12-08T01:57:01.980Z,637.0000
2022-12-08T01:58:04.289Z,634.0000
2022-12-08T01:59:06.560Z,630.0000
2022-12-08T02:00:08.812Z,633.0000
2022-12-08T02:01:11.157Z,634.0000
2022-12-08T02:02:11.335Z,640.0000
2022-12-08T02:03:13.538Z,633.0000
2022-12-08T02:04:15.859Z,633.0000
2022-12-08T02:05:18.190Z,629.0000
2022-12-08T02:06:20.604Z,631.0000
2022-12-08T02:07:22.939Z,633.0000
2022-12-08T02:08:23.222Z,634.0000
2022-12-08T02:09:25.540Z,633.0000
2022-12-08T02:10:27.870Z,630.0000
2022-12-08T02:11:30.423Z,636.0000
2022-12-08T02:12:30.322Z,638.0000
2022-12-08T02:13:32.674Z,636.0000
2022-12-08T02:14:35.045Z,634.0000
2022-12-08T02:15:37.438Z,631.0000
2022-12-08T02:16:39.945Z,633.0000
2022-12-08T02:17:39.970Z,636.0000
2022-12-08T02:18:42.335Z,632.0000
2022-12-08T02:19:44.679Z,633.0000
2022-12-08T02:20:47.011Z,632.0000
2022-12-08T02:21:49.451Z,630.0000
2022-12-08T02:22:49.510Z,629.0000
2022-12-08T02:23:51.797Z,628.0000
2022-12-08T02:24:54.147Z,624.0000
2022-12-08T02:25:56.434Z,630.0000
2022-12-08T02:26:58.871Z,630.0000
2022-12-08T02:28:01.063Z,627.0000
2022-12-08T02:29:01.246Z,626.0000
2022-12-08T02:30:03.926Z,624.0000
2022-12-08T02:31:05.923Z,627.0000
2022-12-08T02:32:08.090Z,626.0000
2022-12-08T02:33:10.289Z,626.0000
2022-12-08T02:34:12.552Z,626.0000
2022-12-08T02:35:14.866Z,625.0000
2022-12-08T02:36:17.100Z,626.0000
2022-12-08T02:37:17.378Z,621.0000
2022-12-08T02:38:19.560Z,617.0000
2022-12-08T02:39:21.842Z,621.0000
2022-12-08T02:40:24.169Z,618.0000
2022-12-08T02:41:26.457Z,621.0000
2022-12-08T02:42:28.874Z,618.0000
2022-12-08T02:43:31.066Z,620.0000
2022-12-08T02:44:31.225Z,621.0000
2022-12-08T02:45:33.524Z,622.0000
2022-12-08T02:46:35.880Z,625.0000
2022-12-08T02:47:38.219Z,625.0000
2022-12-08T02:48:40.374Z,622.0000
2022-12-08T02:49:40.520Z,626.0000
2022-12-08T02:50:42.810Z,626.0000
2022-12-08T02:51:45.113Z,620.0000
2022-12-08T02:52:47.466Z,618.0000
2022-12-08T02:53:49.759Z,620.0000
2022-12-08T02:54:52.048Z,624.0000
2022-12-08T02:55:54.317Z,621.0000
2022-12-08T02:56:54.412Z,621.0000
2022-12-08T02:57:56.908Z,617.0000
2022-12-08T02:58:59.025Z,621.0000
2022-12-08T03:00:01.690Z,623.0000
2022-12-08T03:01:03.733Z,622.0000
2022-12-08T03:02:05.952Z,626.0000
2022-12-08T03:03:08.560Z,624.0000
2022-12-08T03:04:08.350Z,620.0000
2022-12-08T03:05:10.576Z,618.0000
2022-12-08T03:06:12.867Z,618.0000
2022-12-08T03:07:15.131Z,616.0000
2022-12-08T03:08:17.531Z,614.0000
2022-12-08T03:09:19.647Z,616.0000
2022-12-08T03:10:21.899Z,617.0000
2022-12-08T03:11:24.190Z,620.0000
2022-12-08T03:12:26.443Z,622.0000
2022-12-08T03:13:26.599Z,623.0000
2022-12-08T03:14:28.785Z,621.0000
2022-12-08T03:15:31.043Z,623.0000
2022-12-08T03:16:33.237Z,621.0000
2022-12-08T03:17:35.467Z,615.0000
2022-12-08T03:18:37.806Z,617.0000
2022-12-08T03:19:40.009Z,623.0000
2022-12-08T03:20:42.289Z,619.0000
2022-12-08T03:21:42.412Z,618.0000
2022-12-08T03:22:44.754Z,615.0000
2022-12-08T03:23:47.275Z,607.0000
2022-12-08T03:24:49.415Z,611.0000
2022-12-08T03:25:51.778Z,611.0000
2022-12-08T03:26:54.119Z,612.0000
2022-12-08T03:27:54.289Z,611.0000
2022-12-08T03:28:56.837Z,609.0000
2022-12-08T03:29:58.996Z,611.0000
2022-12-08T03:31:01.441Z,613.0000
2022-12-08T03:32:03.689Z,616.0000
2022-12-08T03:33:03.898Z,615.0000
2022-12-08T03:34:06.387Z,618.0000
2022-12-08T03:35:08.595Z,617.0000
2022-12-08T03:36:10.913Z,617.0000
2022-12-08T03:37:20.770Z,618.0000
2022-12-08T03:38:23.019Z,615.0000
2022-12-08T03:39:25.642Z,619.0000
2022-12-08T03:40:27.710Z,617.0000
2022-12-08T03:41:30.056Z,615.0000
2022-12-08T03:42:32.440Z,616.0000
2022-12-08T03:43:34.793Z,618.0000
2022-12-08T03:44:35.045Z,614.0000
2022-12-08T03:45:37.392Z,615.0000
2022-12-08T03:46:39.754Z,615.0000
2022-12-08T03:47:39.952Z,617.0000
2022-12-08T03:48:42.245Z,620.0000
2022-12-08T03:49:44.593Z,617.0000
2022-12-08T03:50:46.871Z,615.0000
2022-12-08T03:51:49.190Z,617.0000
2022-12-08T03:52:51.499Z,620.0000
2022-12-08T03:53:53.816Z,625.0000
2022-12-08T03:54:56.259Z,621.0000
2022-12-08T03:55:58.453Z,620.0000
2022-12-08T03:57:00.802Z,616.0000
2022-12-08T03:58:03.201Z,621.0000
2022-12-08T03:59:05.544Z,621.0000
2022-12-08T04:00:07.913Z,626.0000
2022-12-08T04:01:10.232Z,626.0000
2022-12-08T04:02:12.662Z,628.0000
2022-12-08T04:03:12.904Z,632.0000
2022-12-08T04:04:15.165Z,640.0000
2022-12-08T04:05:17.511Z,643.0000
2022-12-08T04:06:17.704Z,646.0000
2022-12-08T04:07:20.062Z,651.0000
2022-12-08T04:08:22.503Z,654.0000
2022-12-08T04:09:22.642Z,654.0000
2022-12-08T04:10:25.091Z,656.0000
2022-12-08T04:11:27.371Z,661.0000
2022-12-08T04:12:27.599Z,663.0000
2022-12-08T04:13:29.987Z,669.0000
2022-12-08T04:14:32.334Z,671.0000
2022-12-08T04:15:34.916Z,670.0000
2022-12-08T04:16:37.157Z,671.0000
2022-12-08T04:17:39.373Z,677.0000
2022-12-08T04:18:39.539Z,675.0000
2022-12-08T04:19:41.898Z,675.0000
2022-12-08T04:20:44.405Z,678.0000
2022-12-08T04:21:46.577Z,681.0000
2022-12-08T04:22:48.905Z,678.0000
2022-12-08T04:23:54.872Z,686.0000
2022-12-08T04:24:53.555Z,692.0000
2022-12-08T04:25:56.043Z,645.0000
2022-12-08T04:26:58.249Z,588.0000
2022-12-08T04:27:58.447Z,571.0000
2022-12-08T04:29:00.788Z,566.0000
2022-12-08T04:30:03.798Z,554.0000
2022-12-08T04:31:03.572Z,560.0000
2022-12-08T04:32:05.743Z,606.0000
2022-12-08T04:33:08.162Z,618.0000
2022-12-08T04:34:08.359Z,630.0000
2022-12-08T04:35:10.752Z,639.0000
2022-12-08T04:36:13.252Z,650.0000
2022-12-08T04:37:13.343Z,652.0000
2022-12-08T04:38:15.661Z,654.0000
2022-12-08T04:39:18.029Z,662.0000
2022-12-08T04:40:18.234Z,666.0000
2022-12-08T04:41:20.589Z,671.0000
2022-12-08T04:42:22.861Z,674.0000
2022-12-08T04:43:25.172Z,674.0000
2022-12-08T04:44:25.341Z,679.0000
2022-12-08T04:45:27.591Z,683.0000
2022-12-08T04:46:30.101Z,684.0000
2022-12-08T04:47:32.211Z,691.0000
2022-12-08T04:48:34.515Z,699.0000
2022-12-08T04:49:36.836Z,705.0000
2022-12-08T04:50:39.139Z,709.0000
2022-12-08T04:51:41.468Z,717.0000
2022-12-08T04:52:43.723Z,718.0000
2022-12-08T04:53:46.860Z,723.0000
2022-12-08T04:54:46.180Z,720.0000
2022-12-08T04:55:48.486Z,724.0000
2022-12-08T04:56:50.939Z,724.0000
2022-12-08T04:57:53.132Z,726.0000
2022-12-08T04:58:55.454Z,732.0000
2022-12-08T04:59:57.805Z,736.0000
2022-12-08T05:01:00.171Z,741.0000
2022-12-08T05:02:02.728Z,744.0000
2022-12-08T05:03:04.871Z,755.0000
2022-12-08T05:04:06.955Z,757.0000
2022-12-08T05:05:09.280Z,760.0000
2022-12-08T05:06:11.593Z,763.0000
2022-12-08T05:07:14.098Z,767.0000
2022-12-08T05:08:16.385Z,766.0000
2022-12-08T05:09:18.643Z,774.0000
2022-12-08T05:10:21.009Z,773.0000
2022-12-08T05:11:23.374Z,779.0000
2022-12-08T05:12:25.889Z,787.0000
2022-12-08T05:13:25.963Z,788.0000
2022-12-08T05:14:28.324Z,792.0000
2022-12-08T05:15:30.660Z,797.0000
2022-12-08T05:16:30.991Z,808.0000
2022-12-08T05:17:33.373Z,810.0000
2022-12-08T05:18:35.512Z,808.0000
2022-12-08T05:19:37.838Z,808.0000
2022-12-08T05:20:40.214Z,809.0000
2022-12-08T05:21:42.590Z,814.0000
2022-12-08T05:22:42.829Z,819.0000
2022-12-08T05:23:45.144Z,822.0000
2022-12-08T05:24:48.032Z,828.0000
2022-12-08T05:25:47.709Z,826.0000
2022-12-08T05:26:50.052Z,828.0000
2022-12-08T05:28:01.633Z,832.0000
2022-12-08T05:28:54.781Z,832.0000
2022-12-08T05:29:57.084Z,834.0000
2022-12-08T05:30:59.438Z,837.0000
2022-12-08T05:31:59.715Z,835.0000
2022-12-08T05:33:01.972Z,840.0000
2022-12-08T05:34:04.229Z,851.0000
2022-12-08T05:35:06.515Z,856.0000
2022-12-08T05:36:06.635Z,857.0000
2022-12-08T05:37:08.898Z,859.0000
2022-12-08T05:38:11.425Z,859.0000
2022-12-08T05:39:13.465Z,858.0000
2022-12-08T05:40:13.607Z,861.0000
2022-12-08T05:41:15.942Z,868.0000
2022-12-08T05:42:23.189Z,865.0000
2022-12-08T05:43:18.603Z,863.0000
2022-12-08T05:44:20.809Z,864.0000
2022-12-08T05:45:23.110Z,869.0000
2022-12-08T05:46:25.524Z,867.0000
2022-12-08T05:47:25.533Z,866.0000
2022-12-08T05:48:27.940Z,864.0000
2022-12-08T05:49:30.186Z,865.0000
2022-12-08T05:50:30.440Z,863.0000
2022-12-08T05:51:32.840Z,864.0000
2022-12-08T05:52:35.216Z,866.0000
2022-12-08T05:53:35.439Z,868.0000
2022-12-08T05:54:37.768Z,867.0000
2022-12-08T05:55:40.044Z,874.0000
2022-12-08T05:56:42.368Z,866.0000
2022-12-08T05:57:44.647Z,873.0000
2022-12-08T05:58:47.129Z,872.0000
2022-12-08T05:59:49.305Z,871.0000
2022-12-08T06:00:51.642Z,870.0000
2022-12-08T06:01:54.038Z,870.0000
2022-12-08T06:02:56.350Z,866.0000
2022-12-08T06:03:58.605Z,865.0000
2022-12-08T06:05:00.908Z,866.0000
2022-12-08T06:06:03.236Z,862.0000
2022-12-08T06:07:05.629Z,862.0000
2022-12-08T06:08:08.073Z,861.0000
2022-12-08T06:09:08.454Z,854.0000
2022-12-08T06:10:10.600Z,853.0000
2022-12-08T06:11:12.973Z,856.0000
2022-12-08T06:12:13.184Z,852.0000
2022-12-08T06:13:15.557Z,857.0000
2022-12-08T06:14:17.959Z,857.0000
2022-12-08T06:15:18.187Z,855.0000
2022-12-08T06:16:20.653Z,856.0000
2022-12-08T06:17:22.953Z,857.0000
2022-12-08T06:18:24.590Z,857.0000
2022-12-08T06:19:25.511Z,855.0000
2022-12-08T06:20:27.827Z,852.0000
2022-12-08T06:21:28.030Z,846.0000
2022-12-08T06:22:30.343Z,847.0000
2022-12-08T06:23:32.623Z,848.0000
2022-12-08T06:24:34.937Z,845.0000
2022-12-08T06:25:35.068Z,845.0000
2022-12-08T06:26:37.391Z,843.0000
2022-12-08T06:27:39.733Z,846.0000
2022-12-08T06:28:42.049Z,840.0000
2022-12-08T06:29:43.348Z,840.0000
2022-12-08T06:30:44.598Z,841.0000
2022-12-08T06:31:47.039Z,844.0000
2022-12-08T06:32:49.312Z,843.0000
2022-12-08T06:33:51.694Z,842.0000
2022-12-08T06:34:51.926Z,844.0000
2022-12-08T06:35:54.240Z,846.0000
2022-12-08T06:36:56.581Z,850.0000
2022-12-08T06:37:58.931Z,851.0000
2022-12-08T06:39:01.279Z,852.0000
2022-12-08T06:40:04.066Z,856.0000
2022-12-08T06:41:03.860Z,856.0000
2022-12-08T06:42:06.217Z,856.0000
2022-12-08T06:43:08.578Z,848.0000
2022-12-08T06:44:08.840Z,853.0000
2022-12-08T06:45:11.433Z,850.0000
2022-12-08T06:46:13.723Z,849.0000
2022-12-08T06:47:13.855Z,853.0000
2022-12-08T06:48:16.272Z,849.0000
2022-12-08T06:49:18.611Z,850.0000
2022-12-08T06:50:18.874Z,846.0000
2022-12-08T06:51:21.222Z,845.0000
2022-12-08T06:52:23.582Z,849.0000
2022-12-08T06:53:23.800Z,850.0000
2022-12-08T06:54:26.188Z,848.0000
2022-12-08T06:55:58.769Z,852.0000
2022-12-08T06:56:28.769Z,850.0000
2022-12-08T06:57:31.143Z,851.0000
2022-12-08T06:58:33.491Z,853.0000
2022-12-08T06:59:33.714Z,857.0000
2022-12-08T07:00:36.224Z,857.0000
2022-12-08T07:01:38.542Z,856.0000
2022-12-08T07:02:38.782Z,854.0000
2022-12-08T07:03:41.080Z,857.0000
2022-12-08T07:04:43.437Z,863.0000
2022-12-08T07:05:43.676Z,866.0000
2022-12-08T07:06:46.024Z,868.0000
2022-12-08T07:07:48.464Z,832.0000
2022-12-08T07:08:48.625Z,721.0000
2022-12-08T07:09:50.998Z,703.0000
2022-12-08T07:10:53.428Z,740.0000
2022-12-08T07:11:55.807Z,775.0000
2022-12-08T07:12:58.205Z,800.0000
2022-12-08T07:13:58.449Z,807.0000
2022-12-08T07:15:00.831Z,813.0000
2022-12-08T07:16:03.176Z,817.0000
2022-12-08T07:17:03.486Z,814.0000
2022-12-08T07:18:05.673Z,814.0000
2022-12-08T07:19:08.036Z,815.0000
2022-12-08T07:20:10.335Z,795.0000
2022-12-08T07:21:12.819Z,791.0000
2022-12-08T07:22:15.006Z,803.0000
2022-12-08T07:23:17.346Z,794.0000
2022-12-08T07:24:19.663Z,809.0000
2022-12-08T07:25:20.236Z,810.0000
2022-12-08T07:26:22.301Z,806.0000
2022-12-08T07:27:22.340Z,686.0000
2022-12-08T07:28:24.729Z,614.0000
2022-12-08T07:29:27.201Z,536.0000
2022-12-08T07:30:29.874Z,513.0000
2022-12-08T07:31:32.468Z,507.0000
2022-12-08T07:32:34.721Z,512.0000
2022-12-08T07:33:37.223Z,511.0000
2022-12-08T07:34:39.703Z,522.0000
2022-12-08T07:35:48.912Z,656.0000
2022-12-08T07:36:44.608Z,669.0000
2022-12-08T07:37:46.983Z,680.0000
2022-12-08T07:38:47.218Z,691.0000
2022-12-08T07:39:49.581Z,697.0000
2022-12-08T07:40:51.945Z,701.0000
2022-12-08T07:41:52.145Z,705.0000
2022-12-08T07:42:54.453Z,711.0000
2022-12-08T07:43:56.789Z,715.0000
2022-12-08T07:44:56.969Z,714.0000
2022-12-08T07:45:59.335Z,718.0000
2022-12-08T07:47:01.772Z,723.0000
2022-12-08T07:48:03.977Z,727.0000
2022-12-08T07:49:06.329Z,729.0000
2022-12-08T07:50:08.720Z,732.0000
2022-12-08T07:51:08.883Z,734.0000
2022-12-08T07:52:11.295Z,733.0000
2022-12-08T07:53:13.607Z,732.0000
2022-12-08T07:54:15.972Z,732.0000
2022-12-08T07:55:18.306Z,728.0000
2022-12-08T07:56:20.654Z,726.0000
2022-12-08T07:57:20.850Z,728.0000
2022-12-08T07:58:23.211Z,734.0000
2022-12-08T07:59:25.538Z,732.0000
2022-12-08T08:00:28.030Z,729.0000
2022-12-08T08:01:30.551Z,731.0000
2022-12-08T08:02:33.012Z,730.0000
2022-12-08T08:03:32.805Z,730.0000
2022-12-08T08:04:35.206Z,730.0000
2022-12-08T08:05:37.466Z,732.0000
2022-12-08T08:06:39.731Z,728.0000
2022-12-08T08:07:42.228Z,731.0000
2022-12-08T08:08:44.467Z,727.0000
2022-12-08T08:09:44.696Z,724.0000
2022-12-08T08:10:47.097Z,723.0000
2022-12-08T08:12:07.472Z,722.0000
2022-12-08T08:12:49.740Z,723.0000
2022-12-08T08:13:52.070Z,726.0000
2022-12-08T08:14:54.445Z,724.0000
2022-12-08T08:15:54.857Z,727.0000
2022-12-08T08:16:57.236Z,723.0000
2022-12-08T08:17:59.651Z,722.0000
2022-12-08T08:18:59.557Z,700.0000
2022-12-08T08:20:02.373Z,662.0000
2022-12-08T08:21:22.102Z,627.0000
2022-12-08T08:22:04.521Z,620.0000
2022-12-08T08:23:07.200Z,611.0000
2022-12-08T08:24:09.277Z,602.0000
2022-12-08T08:25:09.475Z,605.0000
2022-12-08T08:26:11.770Z,667.0000
2022-12-08T08:27:14.147Z,661.0000
2022-12-08T08:28:16.496Z,667.0000
2022-12-08T08:29:18.844Z,673.0000
2022-12-08T08:30:21.432Z,671.0000
2022-12-08T08:31:23.449Z,670.0000
2022-12-08T08:32:25.738Z,673.0000
2022-12-08T08:33:28.055Z,673.0000
2022-12-08T08:34:30.368Z,652.0000
2022-12-08T08:35:32.715Z,594.0000
2022-12-08T08:36:35.082Z,588.0000
2022-12-08T08:37:37.416Z,586.0000
2022-12-08T08:38:39.962Z,600.0000
2022-12-08T08:39:42.191Z,617.0000
2022-12-08T08:40:42.489Z,643.0000
2022-12-08T08:41:44.706Z,639.0000
2022-12-08T08:42:47.058Z,643.0000
2022-12-08T08:43:47.295Z,646.0000
2022-12-08T08:44:49.646Z,645.0000
2022-12-08T08:45:52.121Z,644.0000
2022-12-08T08:46:52.282Z,643.0000
2022-12-08T08:47:54.605Z,643.0000
2022-12-08T08:48:57.010Z,644.0000
2022-12-08T08:49:57.188Z,645.0000
2022-12-08T08:50:59.529Z,646.0000
2022-12-08T08:52:01.901Z,647.0000
2022-12-08T08:53:04.219Z,648.0000
2022-12-08T08:54:06.616Z,646.0000
2022-12-08T08:55:08.902Z,643.0000
2022-12-08T08:56:09.102Z,641.0000
2022-12-08T08:57:11.425Z,644.0000
2022-12-08T08:58:13.778Z,644.0000
2022-12-08T08:59:16.442Z,643.0000
2022-12-08T09:00:18.464Z,644.0000
2022-12-08T09:01:20.872Z,643.0000
2022-12-08T09:02:23.116Z,646.0000
2022-12-08T09:03:25.434Z,642.0000
2022-12-08T09:04:27.990Z,639.0000
2022-12-08T09:05:30.055Z,640.0000
2022-12-08T09:06:32.514Z,640.0000
2022-12-08T09:07:34.718Z,636.0000
2022-12-08T09:08:37.034Z,634.0000
2022-12-08T09:09:39.335Z,632.0000
2022-12-08T09:10:41.648Z,630.0000
2022-12-08T09:11:43.981Z,635.0000
2022-12-08T09:12:46.343Z,635.0000
2022-12-08T09:13:48.693Z,635.0000
2022-12-08T09:14:49.223Z,641.0000
2022-12-08T09:15:51.267Z,636.0000
2022-12-08T09:16:53.544Z,635.0000
2022-12-08T09:17:55.869Z,636.0000
2022-12-08T09:18:58.231Z,635.0000
2022-12-08T09:20:00.712Z,632.0000
2022-12-08T09:21:00.770Z,633.0000
2022-12-08T09:22:03.107Z,632.0000
2022-12-08T09:23:05.483Z,630.0000
2022-12-08T09:24:07.801Z,629.0000
2022-12-08T09:25:10.300Z,632.0000
2022-12-08T09:26:12.528Z,630.0000
2022-12-08T09:27:12.727Z,628.0000
2022-12-08T09:28:15.095Z,632.0000
2022-12-08T09:29:17.507Z,630.0000
2022-12-08T09:30:17.778Z,628.0000
2022-12-08T09:31:20.181Z,633.0000
2022-12-08T09:32:22.505Z,633.0000
2022-12-08T09:33:22.704Z,633.0000
2022-12-08T09:34:25.061Z,637.0000
2022-12-08T09:35:27.426Z,636.0000
2022-12-08T09:36:28.103Z,637.0000
2022-12-08T09:37:29.907Z,634.0000
2022-12-08T09:38:32.299Z,633.0000
2022-12-08T09:39:34.610Z,634.0000
2022-12-08T09:40:37.026Z,636.0000
2022-12-08T09:41:46.417Z,641.0000
2022-12-08T09:42:39.537Z,642.0000
2022-12-08T09:43:41.909Z,643.0000
2022-12-08T09:44:44.282Z,646.0000
2022-12-08T09:45:44.612Z,645.0000
2022-12-08T09:46:46.896Z,641.0000
2022-12-08T09:47:49.229Z,638.0000
2022-12-08T09:48:49.457Z,637.0000
2022-12-08T09:49:51.838Z,635.0000
2022-12-08T09:50:54.357Z,629.0000
2022-12-08T09:51:54.421Z,632.0000
2022-12-08T09:52:56.747Z,632.0000
2022-12-08T09:53:59.160Z,631.0000
2022-12-08T09:54:59.346Z,634.0000
2022-12-08T09:56:01.805Z,633.0000
2022-12-08T09:57:04.048Z,629.0000
2022-12-08T09:58:06.423Z,633.0000
2022-12-08T09:59:08.780Z,633.0000
2022-12-08T10:00:11.155Z,635.0000
2022-12-08T10:01:11.400Z,636.0000
2022-12-08T10:02:13.735Z,635.0000
2022-12-08T10:03:17.088Z,635.0000
2022-12-08T10:04:18.291Z,635.0000
2022-12-08T10:05:20.677Z,640.0000
2022-12-08T10:06:23.140Z,636.0000
2022-12-08T10:07:25.166Z,630.0000
2022-12-08T10:08:27.562Z,632.0000
2022-12-08T10:09:29.772Z,631.0000
2022-12-08T10:10:32.041Z,631.0000
2022-12-08T10:11:32.184Z,630.0000
2022-12-08T10:12:34.400Z,631.0000
2022-12-08T10:13:36.702Z,633.0000
2022-12-08T10:14:39.019Z,632.0000
2022-12-08T10:15:39.192Z,631.0000
2022-12-08T10:16:41.781Z,635.0000
2022-12-08T10:17:43.804Z,634.0000
2022-12-08T10:18:46.069Z,635.0000
2022-12-08T10:19:48.382Z,637.0000
2022-12-08T10:20:50.680Z,633.0000
2022-12-08T10:21:53.025Z,633.0000
2022-12-08T10:22:53.096Z,631.0000
2022-12-08T10:24:44.893Z,618.0000
2022-12-08T10:25:47.040Z,621.0000
2022-12-08T10:26:49.280Z,624.0000
2022-12-08T10:27:49.415Z,627.0000
2022-12-08T10:28:51.672Z,614.0000
2022-12-08T10:29:53.960Z,623.0000
2022-12-08T10:30:56.334Z,623.0000
2022-12-08T10:31:58.670Z,621.0000
2022-12-08T10:33:00.865Z,619.0000
2022-12-08T10:34:01.012Z,618.0000
2022-12-08T10:35:03.314Z,619.0000
2022-12-08T10:36:05.525Z,618.0000
2022-12-08T10:38:01.609Z,611.0000
2022-12-08T10:39:03.867Z,617.0000
2022-12-08T10:40:06.393Z,617.0000
2022-12-08T10:41:08.467Z,616.0000
2022-12-08T10:42:08.647Z,603.0000
2022-12-08T10:43:11.003Z,605.0000
2022-12-08T10:44:13.329Z,609.0000
2022-12-08T10:45:15.666Z,608.0000
2022-12-08T10:46:18.037Z,611.0000
2022-12-08T10:47:18.115Z,610.0000
2022-12-08T10:48:20.845Z,608.0000
2022-12-08T10:49:22.722Z,609.0000
2022-12-08T10:50:25.052Z,606.0000
2022-12-08T10:51:27.382Z,606.0000
2022-12-08T10:52:29.715Z,605.0000
2022-12-08T10:53:30.160Z,603.0000
2022-12-08T10:54:32.240Z,605.0000
2022-12-08T10:55:34.633Z,608.0000
2022-12-08T10:56:36.964Z,606.0000
2022-12-08T10:57:39.341Z,611.0000
2022-12-08T10:58:39.666Z,605.0000
2022-12-08T10:59:41.891Z,612.0000
2022-12-08T11:00:44.378Z,603.0000
2022-12-08T11:01:46.757Z,614.0000
2022-12-08T11:02:49.091Z,617.0000
2022-12-08T11:03:49.236Z,616.0000
2022-12-08T11:04:51.589Z,624.0000
2022-12-08T11:05:53.938Z,624.0000
2022-12-08T11:06:56.297Z,618.0000
2022-12-08T11:07:58.720Z,618.0000
2022-12-08T11:08:58.865Z,616.0000
2022-12-08T11:10:01.437Z,617.0000
2022-12-08T11:11:03.550Z,612.0000
2022-12-08T11:12:05.898Z,609.0000
2022-12-08T11:13:08.257Z,616.0000
2022-12-08T11:14:08.648Z,613.0000
2022-12-08T11:15:10.862Z,606.0000
2022-12-08T11:16:13.223Z,603.0000
2022-12-08T11:17:15.475Z,605.0000
2022-12-08T11:18:15.622Z,608.0000
2022-12-08T11:19:17.939Z,608.0000
2022-12-08T11:20:20.245Z,605.0000
2022-12-08T11:21:22.582Z,607.0000
2022-12-08T11:22:22.712Z,601.0000
2022-12-08T11:23:24.998Z,603.0000
2022-12-08T11:24:27.503Z,607.0000
2022-12-08T11:25:29.636Z,609.0000
2022-12-08T11:26:31.984Z,610.0000
2022-12-08T11:27:34.275Z,602.0000
2022-12-08T11:28:34.455Z,607.0000
2022-12-08T11:29:36.761Z,604.0000
2022-12-08T11:30:39.073Z,600.0000
2022-12-08T11:31:41.435Z,605.0000
2022-12-08T11:32:43.680Z,603.0000
2022-12-08T11:33:45.978Z,598.0000
2022-12-08T11:34:48.429Z,596.0000
2022-12-08T11:35:50.587Z,597.0000
2022-12-08T11:36:20.687Z,598.0000
2022-12-08T11:37:22.974Z,599.0000
2022-12-08T11:38:25.287Z,600.0000
2022-12-08T11:39:27.631Z,592.0000
2022-12-08T11:40:27.993Z,602.0000
2022-12-08T11:41:30.178Z,596.0000
2022-12-08T11:42:32.546Z,599.0000
2022-12-08T11:43:34.872Z,591.0000
2022-12-08T11:44:37.230Z,591.0000
2022-12-08T11:45:37.486Z,610.0000
2022-12-08T11:46:39.787Z,598.0000
2022-12-08T11:47:42.146Z,597.0000
2022-12-08T11:48:44.472Z,600.0000
2022-12-08T11:50:47.283Z,607.0000
2022-12-08T11:51:49.329Z,593.0000
2022-12-08T11:52:51.651Z,590.0000
2022-12-08T11:53:53.980Z,595.0000
2022-12-08T11:54:56.331Z,594.0000
2022-12-08T11:55:56.488Z,601.0000
2022-12-08T11:56:58.773Z,598.0000
2022-12-08T11:58:01.140Z,579.0000
2022-12-08T11:59:03.372Z,588.0000
2022-12-08T12:00:06.122Z,587.0000
2022-12-08T12:01:08.671Z,588.0000
2022-12-08T12:02:10.293Z,597.0000
2022-12-08T12:03:10.504Z,595.0000
2022-12-08T12:04:12.739Z,599.0000
2022-12-08T12:05:17.435Z,596.0000
2022-12-08T12:06:38.210Z,597.0000
2022-12-08T12:07:25.857Z,594.0000
2022-12-08T12:08:19.853Z,597.0000
2022-12-08T12:09:24.277Z,599.0000